Time;durP1;ratioP1;P1;durP2;ratioP2;P2;SDS_P1;SDS_P2;PMS_P1;PMS_P2;Temp;Humidity;BMP_temperature;BMP_pressure;BME280_temperature;BME280_humidity;BME280_pressure;Samples;Min_cycle;Max_cycle;Signal;HPM_P1;HPM_P2
2023/12/12 00:01:04;;;;;;;4.10;1.63;;;;;;;;;;6095589;23;20321;-82
2023/12/12 00:03:32;;;;;;;4.30;1.73;;;;;;;;;;6081364;23;20078;-82
2023/12/12 00:05:57;;;;;;;3.67;2.20;;;;;;;;;;6072049;23;20344;-81
2023/12/12 00:08:22;;;;;;;3.22;1.90;;;;;;;;;;6067840;23;20021;-82
2023/12/12 00:10:48;;;;;;;3.25;1.77;;;;;;;;;;6102858;23;20010;-82
2023/12/12 00:13:13;;;;;;;3.42;1.63;;;;;;;;;;6095950;23;20017;-82
2023/12/12 00:15:44;;;;;;;3.78;1.70;;;;;;;;;;6094287;23;20036;-83
2023/12/12 00:18:10;;;;;;;3.78;1.70;;;;;;;;;;6078525;23;20089;-83
2023/12/12 00:20:35;;;;;;;3.13;1.50;;;;;;;;;;6082882;23;20005;-82
2023/12/12 00:23:10;;;;;;;3.15;1.63;;;;;;;;;;6087535;23;20072;-82
2023/12/12 00:25:35;;;;;;;3.83;1.90;;;;;;;;;;6098031;23;20377;-82
2023/12/12 00:28:01;;;;;;;5.05;1.90;;;;;;;;;;6077406;23;20017;-82
2023/12/12 00:30:29;;;;;;;3.00;1.60;;;;;;;;;;6091586;23;20042;-81
2023/12/12 00:32:54;;;;;;;;;;;;;;;;;;6089586;23;20017;-82
2023/12/12 00:35:20;;;;;;;3.53;1.65;;;;;;;;;;6091996;23;19920;-82
2023/12/12 00:37:48;;;;;;;3.58;1.73;;;;;;;;;;6089702;23;20017;-82
2023/12/12 00:40:16;;;;;;;2.78;1.30;;;;;;;;;;6081636;23;20025;-82
2023/12/12 00:42:42;;;;;;;3.72;1.40;;;;;;;;;;6115412;23;20016;-82
2023/12/12 00:45:07;;;;;;;3.60;1.50;;;;;;;;;;6090389;23;20026;-82
2023/12/12 00:47:33;;;;;;;3.15;1.60;;;;;;;;;;6090635;23;20018;-82
2023/12/12 00:49:58;;;;;;;4.32;1.55;;;;;;;;;;6091313;23;20081;-82
2023/12/12 00:52:26;;;;;;;4.55;1.40;;;;;;;;;;6114773;23;20014;-82
2023/12/12 00:54:51;;;;;;;3.42;1.58;;;;;;;;;;6091921;23;20018;-82
2023/12/12 00:57:17;;;;;;;3.10;1.50;;;;;;;;;;6088457;23;20018;-82
2023/12/12 00:59:42;;;;;;;3.95;1.80;;;;;;;;;;6067681;23;22255;-82
2023/12/12 01:02:08;;;;;;;3.47;1.67;;;;;;;;;;6090408;23;20448;-82
2023/12/12 01:04:34;;;;;;;4.80;2.10;;;;;;;;;;6136592;23;20084;-82
2023/12/12 01:07:00;;;;;;;3.45;1.77;;;;;;;;;;6103636;23;20753;-82
2023/12/12 01:09:25;;;;;;;4.75;2.00;;;;;;;;;;6067053;23;20085;-83
2023/12/12 01:11:51;;;;;;;5.13;2.00;;;;;;;;;;6052962;23;20013;-82
2023/12/12 01:14:16;;;;;;;4.13;2.08;;;;;;;;;;6063779;23;20021;-82
2023/12/12 01:16:41;;;;;;;3.80;2.20;;;;;;;;;;6095039;23;20009;-83
2023/12/12 01:19:07;;;;;;;5.10;2.42;;;;;;;;;;6072210;23;20349;-82
2023/12/12 01:21:32;;;;;;;4.22;2.22;;;;;;;;;;6099241;23;20104;-82
2023/12/12 01:23:57;;;;;;;4.75;2.13;;;;;;;;;;6095232;23;20511;-82
2023/12/12 01:26:23;;;;;;;5.50;2.40;;;;;;;;;;6066660;23;20377;-82
2023/12/12 01:28:49;;;;;;;5.28;2.72;;;;;;;;;;6092085;23;20672;-82
2023/12/12 01:31:20;;;;;;;4.13;2.35;;;;;;;;;;6066347;23;20049;-82
2023/12/12 01:33:47;;;;;;;4.93;2.50;;;;;;;;;;6105923;23;20041;-83
2023/12/12 01:36:12;;;;;;;4.15;2.28;;;;;;;;;;6109974;23;20026;-82
2023/12/12 01:38:38;;;;;;;5.85;2.67;;;;;;;;;;6058217;23;20068;-82
2023/12/12 01:41:03;;;;;;;4.72;2.60;;;;;;;;;;6068358;23;20014;-82
2023/12/12 01:43:30;;;;;;;4.30;2.33;;;;;;;;;;6092993;23;20444;-82
2023/12/12 01:46:04;;;;;;;5.13;2.80;;;;;;;;;;6067770;23;20029;-82
2023/12/12 01:48:33;;;;;;;5.50;3.30;;;;;;;;;;6068351;23;20017;-82
2023/12/12 01:51:00;;;;;;;5.90;3.35;;;;;;;;;;6091896;23;20010;-81
2023/12/12 01:53:32;;;;;;;7.28;3.15;;;;;;;;;;6107106;23;20085;-82
2023/12/12 01:56:00;;;;;;;7.88;3.58;;;;;;;;;;6092928;23;20085;-82
2023/12/12 01:58:28;;;;;;;6.22;3.55;;;;;;;;;;6106511;23;20387;-82
2023/12/12 02:00:55;;;;;;;7.60;3.78;;;;;;;;;;6068535;23;20471;-82
2023/12/12 02:03:22;;;;;;;7.13;4.10;;;;;;;;;;6080306;23;20014;-82
2023/12/12 02:05:48;;;;;;;7.05;3.60;;;;;;;;;;6068059;23;20475;-82
2023/12/12 02:08:13;;;;;;;7.85;3.70;;;;;;;;;;6109889;23;20022;-82
2023/12/12 02:10:42;;;;;;;7.43;3.58;;;;;;;;;;6092368;23;20013;-82
2023/12/12 02:13:08;;;;;;;6.22;3.85;;;;;;;;;;6092774;23;20010;-81
2023/12/12 02:15:33;;;;;;;7.30;4.30;;;;;;;;;;6089115;23;20055;-82
2023/12/12 02:18:01;;;;;;;7.65;4.30;;;;;;;;;;6074269;23;20080;-82
2023/12/12 02:20:27;;;;;;;6.68;4.10;;;;;;;;;;6067525;23;20445;-82
2023/12/12 02:22:52;;;;;;;8.30;4.38;;;;;;;;;;6068538;23;20017;-82
2023/12/12 02:25:18;;;;;;;6.70;4.28;;;;;;;;;;6091471;23;20021;-82
2023/12/12 02:27:44;;;;;;;7.25;4.00;;;;;;;;;;6077471;23;20028;-82
2023/12/12 02:30:11;;;;;;;7.55;4.70;;;;;;;;;;6108485;23;20030;-82
2023/12/12 02:32:36;;;;;;;8.48;4.25;;;;;;;;;;6074430;23;20025;-82
2023/12/12 02:35:02;;;;;;;7.35;4.10;;;;;;;;;;6072273;23;20036;-82
2023/12/12 02:37:27;;;;;;;7.90;4.13;;;;;;;;;;6055084;23;20748;-83
2023/12/12 02:39:56;;;;;;;8.10;4.43;;;;;;;;;;6096750;23;20088;-82
2023/12/12 02:42:23;;;;;;;7.38;4.25;;;;;;;;;;6077455;23;20325;-83
2023/12/12 02:44:49;;;;;;;;;;;;;;;;;;6068417;23;20507;-83
2023/12/12 02:47:14;;;;;;;6.03;3.08;;;;;;;;;;6078192;23;19995;-83
2023/12/12 02:49:39;;;;;;;5.15;2.40;;;;;;;;;;6096971;23;20022;-83
2023/12/12 02:52:05;;;;;;;6.82;2.92;;;;;;;;;;6088803;23;20519;-82
2023/12/12 02:54:30;;;;;;;4.55;2.13;;;;;;;;;;6068519;23;20340;-82
2023/12/12 02:56:58;;;;;;;4.50;2.22;;;;;;;;;;6054202;23;20034;-81
2023/12/12 02:59:23;;;;;;;5.57;1.90;;;;;;;;;;6122345;23;20009;-81
2023/12/12 03:01:49;;;;;;;3.50;1.80;;;;;;;;;;6081435;23;20049;-81
2023/12/12 03:04:14;;;;;;;5.18;2.10;;;;;;;;;;6095383;23;20079;-81
2023/12/12 03:06:40;;;;;;;4.22;1.90;;;;;;;;;;6065123;23;20026;-81
2023/12/12 03:09:05;;;;;;;4.32;2.08;;;;;;;;;;6084516;23;20018;-81
2023/12/12 03:11:33;;;;;;;4.07;1.60;;;;;;;;;;6069597;23;20010;-80
2023/12/12 03:13:58;;;;;;;4.72;1.70;;;;;;;;;;6069486;23;20356;-81
2023/12/12 03:16:27;;;;;;;4.68;1.63;;;;;;;;;;6119433;23;20005;-81
2023/12/12 03:18:52;;;;;;;5.20;1.50;;;;;;;;;;6095995;23;20010;-81
2023/12/12 03:21:18;;;;;;;3.53;1.42;;;;;;;;;;6096467;23;20017;-81
2023/12/12 03:23:44;;;;;;;4.55;1.77;;;;;;;;;;6096305;23;20018;-81
2023/12/12 03:26:11;;;;;;;4.68;1.77;;;;;;;;;;6069351;23;20023;-80
2023/12/12 03:28:57;;;;;;;3.97;1.40;;;;;;;;;;6097053;23;20014;-81
2023/12/12 03:31:23;;;;;;;3.57;1.40;;;;;;;;;;6071587;23;20464;-81
2023/12/12 03:33:48;;;;;;;5.28;1.60;;;;;;;;;;6085164;23;20025;-82
2023/12/12 03:36:13;;;;;;;4.00;1.42;;;;;;;;;;6058403;23;20022;-81
2023/12/12 03:38:39;;;;;;;3.72;1.50;;;;;;;;;;6049950;23;20062;-81
2023/12/12 03:41:04;;;;;;;2.70;1.50;;;;;;;;;;6060170;23;20018;-81
2023/12/12 03:43:33;;;;;;;3.90;1.42;;;;;;;;;;6084383;23;20065;-81
2023/12/12 03:46:01;;;;;;;5.47;2.15;;;;;;;;;;6077893;23;20031;-81
2023/12/12 03:48:26;;;;;;;5.03;1.92;;;;;;;;;;6109211;23;20041;-81
2023/12/12 03:51:17;;;;;;;6.15;2.25;;;;;;;;;;6072009;23;20018;-79
2023/12/12 03:53:43;;;;;;;6.75;2.33;;;;;;;;;;6002436;23;20065;-80
2023/12/12 03:56:08;;;;;;;4.88;2.60;;;;;;;;;;5953655;23;20035;-80
2023/12/12 03:58:34;;;;;;;6.10;2.83;;;;;;;;;;5940862;23;20011;-82
2023/12/12 04:01:00;;;;;;;6.30;2.50;;;;;;;;;;5969948;23;20016;-81
2023/12/12 04:03:26;;;;;;;5.57;2.85;;;;;;;;;;5956262;23;20027;-81
2023/12/12 04:06:03;;;;;;;4.68;2.70;;;;;;;;;;5957805;23;20080;-81
2023/12/12 04:08:28;;;;;;;8.30;2.80;;;;;;;;;;6006478;23;20354;-81
2023/12/12 04:10:54;;;;;;;6.07;2.80;;;;;;;;;;6026829;23;20147;-80
2023/12/12 04:13:19;;;;;;;7.00;3.28;;;;;;;;;;6018386;23;20492;-81
2023/12/12 04:15:45;;;;;;;7.03;3.22;;;;;;;;;;6030710;23;20370;-81
2023/12/12 04:18:10;;;;;;;7.82;3.20;;;;;;;;;;6018862;23;20492;-81
2023/12/12 04:20:35;;;;;;;7.43;3.40;;;;;;;;;;6031360;23;20015;-81
2023/12/12 04:23:03;;;;;;;10.52;2.88;;;;;;;;;;6019891;23;20095;-80
2023/12/12 04:25:32;;;;;;;8.93;2.95;;;;;;;;;;6017905;23;20034;-80
2023/12/12 04:28:04;;;;;;;9.18;3.28;;;;;;;;;;6021601;23;20501;-80
2023/12/12 04:30:29;;;;;;;9.02;3.17;;;;;;;;;;6061595;23;20026;-81
2023/12/12 04:32:55;;;;;;;7.82;3.20;;;;;;;;;;6115891;23;20117;-81
2023/12/12 04:35:20;;;;;;;9.70;3.70;;;;;;;;;;6086156;23;20097;-81
2023/12/12 04:37:46;;;;;;;8.35;3.05;;;;;;;;;;6066418;23;20018;-81
2023/12/12 04:40:12;;;;;;;9.25;3.50;;;;;;;;;;6093868;23;20400;-81
2023/12/12 04:42:38;;;;;;;8.63;3.38;;;;;;;;;;6075578;23;20038;-80
2023/12/12 04:45:04;;;;;;;9.40;2.97;;;;;;;;;;6077008;23;20079;-81
2023/12/12 04:47:29;;;;;;;7.18;2.83;;;;;;;;;;6065522;23;20106;-81
2023/12/12 04:49:55;;;;;;;6.70;2.70;;;;;;;;;;6140532;23;20036;-82
2023/12/12 04:52:21;;;;;;;7.05;2.63;;;;;;;;;;6116390;23;20010;-82
2023/12/12 04:54:46;;;;;;;5.50;2.58;;;;;;;;;;6092044;23;20034;-83
2023/12/12 04:57:12;;;;;;;5.22;2.45;;;;;;;;;;6063059;23;20480;-82
2023/12/12 04:59:37;;;;;;;7.30;2.28;;;;;;;;;;6037864;23;20011;-82
2023/12/12 05:02:03;;;;;;;7.93;2.80;;;;;;;;;;6077052;23;20472;-81
2023/12/12 05:04:28;;;;;;;7.60;2.70;;;;;;;;;;6067984;23;20053;-81
2023/12/12 05:06:54;;;;;;;9.38;2.88;;;;;;;;;;6091423;23;20100;-81
2023/12/12 05:09:20;;;;;;;8.38;2.88;;;;;;;;;;6115764;23;20105;-81
2023/12/12 05:11:45;;;;;;;7.30;2.45;;;;;;;;;;6098250;23;20014;-83
2023/12/12 05:14:11;;;;;;;9.93;2.45;;;;;;;;;;6092705;23;20101;-85
2023/12/12 05:16:37;;;;;;;6.60;2.63;;;;;;;;;;6081132;23;20014;-84
2023/12/12 05:19:07;;;;;;;7.20;2.45;;;;;;;;;;6067519;23;20085;-85
2023/12/12 05:22:12;;;;;;;7.15;2.60;;;;;;;;;;6034501;23;20419;-83
2023/12/12 05:25:39;;;;;;;4.75;2.47;;;;;;;;;;6004165;23;20116;-83
2023/12/12 05:28:17;;;;;;;8.88;2.55;;;;;;;;;;5958858;23;20141;-84
2023/12/12 05:31:29;;;;;;;8.70;2.55;;;;;;;;;;5965942;23;20049;-83
2023/12/12 05:34:59;;;;;;;12.45;3.00;;;;;;;;;;6052227;23;20433;-83
2023/12/12 05:37:48;;;;;;;9.10;2.90;;;;;;;;;;6012254;23;20138;-82
2023/12/12 05:40:17;;;;;;;6.82;2.58;;;;;;;;;;6027666;23;20074;-83
2023/12/12 05:42:43;;;;;;;9.95;3.00;;;;;;;;;;6039351;23;20390;-83
2023/12/12 05:45:09;;;;;;;11.13;3.17;;;;;;;;;;6062038;23;20612;-83
2023/12/12 05:47:45;;;;;;;11.45;3.17;;;;;;;;;;6062499;23;20030;-82
2023/12/12 05:50:11;;;;;;;6.75;2.72;;;;;;;;;;6046119;23;20448;-86
2023/12/12 05:52:37;;;;;;;6.63;2.83;;;;;;;;;;6071746;23;20372;-84
2023/12/12 05:55:08;;;;;;;6.47;3.20;;;;;;;;;;6039425;23;20488;-83
2023/12/12 05:57:35;;;;;;;8.82;2.85;;;;;;;;;;6072606;23;20101;-83
2023/12/12 06:00:07;;;;;;;6.28;2.70;;;;;;;;;;6038567;23;20070;-83
2023/12/12 06:02:32;;;;;;;9.02;2.83;;;;;;;;;;6060812;23;20101;-83
2023/12/12 06:04:57;;;;;;;9.38;3.47;;;;;;;;;;6062790;23;20486;-83
2023/12/12 06:07:23;;;;;;;8.77;3.20;;;;;;;;;;6061616;23;20050;-83
2023/12/12 06:10:13;;;;;;;7.60;3.40;;;;;;;;;;6053927;23;20041;-85
2023/12/12 06:12:39;;;;;;;12.00;3.10;;;;;;;;;;6050032;23;20521;-85
2023/12/12 06:15:07;;;;;;;9.43;3.10;;;;;;;;;;6063786;23;20022;-84
2023/12/12 06:17:39;;;;;;;6.32;3.15;;;;;;;;;;6084189;23;20010;-85
2023/12/12 06:20:06;;;;;;;8.55;3.70;;;;;;;;;;6085828;23;20013;-86
2023/12/12 06:22:31;;;;;;;10.60;3.50;;;;;;;;;;6074256;23;20471;-86
2023/12/12 06:24:57;;;;;;;9.77;3.63;;;;;;;;;;6070763;23;20022;-84
2023/12/12 06:27:28;;;;;;;10.05;3.58;;;;;;;;;;6056459;23;20014;-85
2023/12/12 06:29:53;;;;;;;10.85;4.90;;;;;;;;;;6070452;23;20448;-84
2023/12/12 06:32:19;;;;;;;7.53;4.32;;;;;;;;;;6118868;23;20069;-85
2023/12/12 06:34:45;;;;;;;9.60;4.18;;;;;;;;;;6106678;23;20405;-85
2023/12/12 06:37:10;;;;;;;9.95;4.10;;;;;;;;;;6095875;23;20029;-85
2023/12/12 06:39:36;;;;;;;8.35;4.80;;;;;;;;;;6094284;23;20018;-85
2023/12/12 06:42:01;;;;;;;10.88;5.20;;;;;;;;;;6093614;23;20024;-85
2023/12/12 06:44:27;;;;;;;8.60;4.60;;;;;;;;;;6098234;23;20028;-85
2023/12/12 06:46:52;;;;;;;13.52;5.05;;;;;;;;;;6050002;23;20035;-84
2023/12/12 06:49:17;;;;;;;16.08;5.65;;;;;;;;;;6020367;23;20076;-84
2023/12/12 06:51:46;;;;;;;11.90;4.80;;;;;;;;;;6066395;23;20018;-84
2023/12/12 06:54:11;;;;;;;12.02;5.55;;;;;;;;;;6038348;23;20101;-84
2023/12/12 06:56:37;;;;;;;14.13;5.22;;;;;;;;;;6022267;23;20033;-84
2023/12/12 06:59:05;;;;;;;11.43;5.25;;;;;;;;;;6075009;23;20018;-84
2023/12/12 07:01:31;;;;;;;14.32;5.43;;;;;;;;;;6062485;23;20021;-85
2023/12/12 07:03:57;;;;;;;11.27;5.22;;;;;;;;;;6069136;23;20538;-85
2023/12/12 07:06:26;;;;;;;8.98;4.90;;;;;;;;;;6087510;23;20010;-85
2023/12/12 07:08:52;;;;;;;13.85;5.28;;;;;;;;;;6012169;23;20479;-84
2023/12/12 07:11:17;;;;;;;9.90;4.28;;;;;;;;;;6030443;23;20038;-84
2023/12/12 07:14:35;;;;;;;11.98;5.30;;;;;;;;;;6067722;23;20345;-84
2023/12/12 07:17:03;;;;;;;13.98;5.40;;;;;;;;;;6032844;23;20018;-84
2023/12/12 07:19:46;;;;;;;10.38;4.85;;;;;;;;;;6072572;23;20351;-84
2023/12/12 07:22:12;;;;;;;11.18;5.53;;;;;;;;;;6028045;23;20041;-84
2023/12/12 07:27:25;;;;;;;10.15;4.78;;;;;;;;;;6047439;23;20029;-83
2023/12/12 07:29:51;;;;;;;9.90;5.00;;;;;;;;;;6054310;23;20017;-85
2023/12/12 07:32:16;;;;;;;12.23;4.88;;;;;;;;;;6046587;23;20492;-85
2023/12/12 07:34:56;;;;;;;9.73;4.90;;;;;;;;;;6092636;23;20014;-85
2023/12/12 07:40:23;;;;;;;12.20;4.70;;;;;;;;;;6069706;23;20017;-85
2023/12/12 07:42:48;;;;;;;8.63;4.75;;;;;;;;;;6051902;23;20453;-84
2023/12/12 07:45:46;;;;;;;10.40;5.07;;;;;;;;;;6079529;23;20037;-85
2023/12/12 07:48:51;;;;;;;10.25;4.97;;;;;;;;;;6048602;23;20407;-84
2023/12/12 07:51:23;;;;;;;12.60;5.28;;;;;;;;;;6008922;23;20521;-84
2023/12/12 07:53:51;;;;;;;12.57;5.43;;;;;;;;;;6044778;23;20017;-84
2023/12/12 07:56:35;;;;;;;11.93;4.85;;;;;;;;;;6036059;23;20026;-84
2023/12/12 07:59:03;;;;;;;12.57;4.88;;;;;;;;;;6039184;23;20014;-84
2023/12/12 08:01:59;;;;;;;9.40;4.55;;;;;;;;;;6051161;23;20020;-84
2023/12/12 08:04:27;;;;;;;11.40;5.80;;;;;;;;;;5999895;23;20030;-83
2023/12/12 08:06:53;;;;;;;13.38;5.60;;;;;;;;;;6085027;23;20025;-85
2023/12/12 08:09:18;;;;;;;10.77;5.60;;;;;;;;;;6043246;23;20349;-84
2023/12/12 08:11:46;;;;;;;14.27;5.53;;;;;;;;;;6088069;23;20571;-84
2023/12/12 08:14:11;;;;;;;15.38;5.70;;;;;;;;;;6059517;23;20414;-84
2023/12/12 08:16:37;;;;;;;12.18;5.90;;;;;;;;;;6090714;23;20017;-83
2023/12/12 08:19:02;;;;;;;11.52;5.75;;;;;;;;;;6051140;23;20094;-84
2023/12/12 08:21:30;;;;;;;12.70;5.25;;;;;;;;;;6053088;23;20014;-83
2023/12/12 08:23:56;;;;;;;11.88;5.28;;;;;;;;;;6020458;23;20014;-84
2023/12/12 08:26:24;;;;;;;11.73;5.30;;;;;;;;;;6041778;23;20109;-84
2023/12/12 08:29:15;;;;;;;11.18;5.53;;;;;;;;;;6054576;23;20025;-84
2023/12/12 08:31:45;;;;;;;10.10;4.80;;;;;;;;;;6111040;23;20348;-84
2023/12/12 08:34:11;;;;;;;9.73;4.50;;;;;;;;;;6107210;23;20017;-84
2023/12/12 08:36:36;;;;;;;10.27;4.82;;;;;;;;;;6071243;23;20036;-84
2023/12/12 08:39:28;;;;;;;15.25;5.43;;;;;;;;;;6056812;23;20006;-84
2023/12/12 08:41:53;;;;;;;12.05;4.20;;;;;;;;;;6108535;23;20495;-84
2023/12/12 08:44:19;;;;;;;10.02;4.85;;;;;;;;;;6095390;23;20016;-84
2023/12/12 08:46:57;;;;;;;11.05;5.30;;;;;;;;;;6102821;23;20075;-84
2023/12/12 08:49:23;;;;;;;10.93;4.57;;;;;;;;;;6065116;23;20076;-84
2023/12/12 08:52:26;;;;;;;12.63;4.47;;;;;;;;;;6098816;23;20085;-85
2023/12/12 08:54:52;;;;;;;14.15;5.05;;;;;;;;;;6077726;23;20021;-84
2023/12/12 08:57:29;;;;;;;12.02;4.72;;;;;;;;;;6022216;23;20018;-84
2023/12/12 08:59:55;;;;;;;8.80;4.80;;;;;;;;;;6094285;23;20018;-85
2023/12/12 09:02:21;;;;;;;10.73;4.20;;;;;;;;;;6072129;23;20039;-84
2023/12/12 09:05:06;;;;;;;12.95;4.45;;;;;;;;;;6121633;23;20009;-84
2023/12/12 09:07:35;;;;;;;13.45;4.57;;;;;;;;;;5991428;23;20051;-84
2023/12/12 09:10:03;;;;;;;10.35;4.35;;;;;;;;;;5994144;23;20098;-85
2023/12/12 09:12:37;;;;;;;11.48;5.10;;;;;;;;;;5907213;23;20098;-84
2023/12/12 09:15:10;;;;;;;10.73;4.22;;;;;;;;;;5957823;23;20042;-84
2023/12/12 09:17:38;;;;;;;10.13;3.92;;;;;;;;;;5967717;23;20149;-85
2023/12/12 09:20:13;;;;;;;13.10;4.40;;;;;;;;;;5934024;23;20102;-84
2023/12/12 09:23:06;;;;;;;8.95;3.63;;;;;;;;;;5957475;23;20016;-84
2023/12/12 09:25:34;;;;;;;8.43;3.90;;;;;;;;;;5963966;23;20015;-84
2023/12/12 09:28:18;;;;;;;10.23;4.22;;;;;;;;;;5958269;23;20155;-84
2023/12/12 09:30:47;;;;;;;8.43;3.85;;;;;;;;;;5909585;23;20015;-84
2023/12/12 09:33:12;;;;;;;8.02;3.58;;;;;;;;;;5984020;23;20030;-85
2023/12/12 09:35:38;;;;;;;9.45;3.63;;;;;;;;;;5960606;23;20556;-84
2023/12/12 09:38:06;;;;;;;9.63;3.90;;;;;;;;;;5988398;23;20019;-84
2023/12/12 09:40:41;;;;;;;7.35;3.17;;;;;;;;;;5950278;23;20398;-83
2023/12/12 09:43:11;;;;;;;8.23;3.53;;;;;;;;;;5980821;23;20042;-84
2023/12/12 09:45:39;;;;;;;8.95;3.67;;;;;;;;;;6072190;23;20021;-84
2023/12/12 09:48:08;;;;;;;8.38;3.30;;;;;;;;;;6082117;23;20017;-85
2023/12/12 09:50:58;;;;;;;5.55;3.08;;;;;;;;;;6079396;23;20010;-85
2023/12/12 09:53:25;;;;;;;11.80;3.78;;;;;;;;;;6102406;23;20702;-85
2023/12/12 09:55:51;;;;;;;8.23;3.13;;;;;;;;;;6094481;23;20451;-85
2023/12/12 09:58:22;;;;;;;8.50;3.05;;;;;;;;;;6106078;23;20017;-86
2023/12/12 10:00:59;;;;;;;8.85;3.60;;;;;;;;;;6095885;23;20451;-87
2023/12/12 10:03:25;;;;;;;6.90;3.80;;;;;;;;;;6067444;23;20022;-87
2023/12/12 10:05:53;;;;;;;8.32;3.70;;;;;;;;;;6121348;23;20015;-86
2023/12/12 10:08:19;;;;;;;7.22;3.58;;;;;;;;;;6097295;23;20013;-87
2023/12/12 10:10:44;;;;;;;10.20;3.83;;;;;;;;;;6083773;23;20191;-85
2023/12/12 10:13:15;;;;;;;6.93;3.30;;;;;;;;;;6110769;23;20093;-85
2023/12/12 10:15:41;;;;;;;10.30;3.67;;;;;;;;;;6055993;23;20417;-85
2023/12/12 10:18:06;;;;;;;10.13;3.97;;;;;;;;;;6122093;23;20022;-85
2023/12/12 10:20:35;;;;;;;11.07;3.65;;;;;;;;;;6093267;23;20349;-86
2023/12/12 10:23:03;;;;;;;9.60;3.50;;;;;;;;;;6073627;23;20010;-85
2023/12/12 10:25:33;;;;;;;7.85;3.65;;;;;;;;;;6090676;23;20089;-85
2023/12/12 10:27:59;;;;;;;11.43;4.38;;;;;;;;;;6076775;23;20018;-86
2023/12/12 10:30:26;;;;;;;12.02;3.75;;;;;;;;;;6086144;23;20535;-86
2023/12/12 10:32:52;;;;;;;12.15;3.58;;;;;;;;;;6083547;23;20014;-85
2023/12/12 10:35:19;;;;;;;9.40;3.70;;;;;;;;;;6098163;23;20021;-86
2023/12/12 10:37:44;;;;;;;7.07;3.40;;;;;;;;;;6101010;23;20009;-85
2023/12/12 10:40:21;;;;;;;8.55;3.25;;;;;;;;;;6077795;23;20033;-86
2023/12/12 10:43:13;;;;;;;11.25;3.65;;;;;;;;;;6084070;23;20021;-86
2023/12/12 10:45:40;;;;;;;7.53;3.40;;;;;;;;;;6077196;23;20025;-85
2023/12/12 10:48:11;;;;;;;10.13;3.70;;;;;;;;;;6078908;23;20017;-86
2023/12/12 10:50:49;;;;;;;9.75;3.55;;;;;;;;;;6079453;23;20352;-85
2023/12/12 10:53:15;;;;;;;8.80;3.53;;;;;;;;;;6085121;23;20021;-86
2023/12/12 10:55:41;;;;;;;9.13;2.95;;;;;;;;;;6096525;23;20085;-86
2023/12/12 10:58:23;;;;;;;9.52;3.20;;;;;;;;;;6092259;23;20025;-85
2023/12/12 11:00:51;;;;;;;7.82;2.50;;;;;;;;;;6088156;23;20067;-87
2023/12/12 11:03:31;;;;;;;;;;;;;;;;;;;;;
2023/12/12 11:05:58;;;;;;;5.50;2.45;;;;;;;;;;6075733;23;21316;-83
2023/12/12 11:08:24;;;;;;;10.90;2.88;;;;;;;;;;6091958;23;20041;-86
2023/12/12 11:11:25;;;;;;;10.63;2.38;;;;;;;;;;6081542;23;20348;-85
2023/12/12 11:13:51;;;;;;;8.10;2.97;;;;;;;;;;6033390;23;20095;-86
2023/12/12 11:16:17;;;;;;;6.57;2.15;;;;;;;;;;6088736;23;20396;-87
2023/12/12 11:18:51;;;;;;;8.43;2.60;;;;;;;;;;6070644;23;20017;-87
2023/12/12 11:21:41;;;;;;;6.57;2.03;;;;;;;;;;6043256;23;20519;-87
2023/12/12 11:24:07;;;;;;;7.65;2.05;;;;;;;;;;6113295;23;20025;-86
2023/12/12 11:26:33;;;;;;;7.80;2.15;;;;;;;;;;6120784;23;20018;-87
2023/12/12 11:28:59;;;;;;;6.93;2.15;;;;;;;;;;6096683;23;20550;-86
2023/12/12 11:31:26;;;;;;;7.13;2.22;;;;;;;;;;6120569;23;20037;-85
2023/12/12 11:34:15;;;;;;;6.70;2.10;;;;;;;;;;6097637;23;20013;-85
2023/12/12 11:36:54;;;;;;;4.40;2.20;;;;;;;;;;6079814;23;20460;-86
2023/12/12 11:39:39;;;;;;;6.03;2.38;;;;;;;;;;6085585;23;20037;-88
2023/12/12 11:42:16;;;;;;;8.65;2.10;;;;;;;;;;6052947;23;20017;-87
2023/12/12 11:44:45;;;;;;;7.18;2.28;;;;;;;;;;6074064;23;20088;-86
2023/12/12 11:47:15;;;;;;;6.50;2.22;;;;;;;;;;6077067;23;20029;-85
2023/12/12 11:49:41;;;;;;;9.00;2.55;;;;;;;;;;6068261;23;20014;-87
2023/12/12 11:52:07;;;;;;;3.80;1.77;;;;;;;;;;6091227;23;20014;-86
2023/12/12 11:54:35;;;;;;;7.88;2.03;;;;;;;;;;6045826;23;20030;-87
2023/12/12 11:57:01;;;;;;;8.02;2.47;;;;;;;;;;6087926;23;20622;-87
2023/12/12 11:59:28;;;;;;;7.18;1.88;;;;;;;;;;6092830;23;20018;-87
2023/12/12 12:01:54;;;;;;;5.38;1.80;;;;;;;;;;6047556;23;20014;-87
2023/12/12 12:04:21;;;;;;;7.38;1.80;;;;;;;;;;6072629;23;20084;-84
2023/12/12 12:06:47;;;;;;;5.70;1.33;;;;;;;;;;6067669;23;20018;-85
2023/12/12 12:09:13;;;;;;;4.50;1.50;;;;;;;;;;6115149;23;20017;-85
2023/12/12 12:11:46;;;;;;;4.25;1.55;;;;;;;;;;6050550;23;20013;-84
2023/12/12 12:14:15;;;;;;;6.43;1.80;;;;;;;;;;6066422;23;20097;-84
2023/12/12 12:16:41;;;;;;;6.00;1.80;;;;;;;;;;6058753;23;20014;-84
2023/12/12 12:19:29;;;;;;;7.18;1.67;;;;;;;;;;6066008;23;20018;-84
2023/12/12 12:22:23;;;;;;;5.07;1.60;;;;;;;;;;6039725;23;20073;-87
2023/12/12 12:24:49;;;;;;;8.50;1.65;;;;;;;;;;6041242;23;20038;-88
2023/12/12 12:27:39;;;;;;;5.82;1.75;;;;;;;;;;6076887;23;20467;-87
2023/12/12 12:30:14;;;;;;;5.68;2.03;;;;;;;;;;6055641;23;20038;-87
2023/12/12 12:33:02;;;;;;;5.20;1.60;;;;;;;;;;6051101;23;20448;-87
2023/12/12 12:35:34;;;;;;;6.25;1.70;;;;;;;;;;6059372;23;20059;-87
2023/12/12 12:38:23;;;;;;;6.90;1.70;;;;;;;;;;6022214;23;20568;-87
2023/12/12 12:40:48;;;;;;;6.10;2.00;;;;;;;;;;6071340;23;20123;-87
2023/12/12 12:43:18;;;;;;;6.10;1.98;;;;;;;;;;6017578;23;20042;-87
2023/12/12 12:45:46;;;;;;;5.93;2.00;;;;;;;;;;6041495;23;20105;-87
2023/12/12 12:48:55;;;;;;;5.97;1.48;;;;;;;;;;6059485;23;20040;-86
2023/12/12 12:51:20;;;;;;;6.78;1.92;;;;;;;;;;6033051;23;20030;-87
2023/12/12 12:54:18;;;;;;;7.15;1.95;;;;;;;;;;6060238;23;20018;-86
2023/12/12 12:56:47;;;;;;;5.40;1.73;;;;;;;;;;6046092;23;20010;-87
2023/12/12 12:59:18;;;;;;;9.38;2.00;;;;;;;;;;6006632;23;20437;-87
2023/12/12 13:01:44;;;;;;;6.55;2.08;;;;;;;;;;6065002;23;20061;-87
2023/12/12 13:04:16;;;;;;;6.18;1.58;;;;;;;;;;6090911;23;20449;-86
2023/12/12 13:06:44;;;;;;;6.07;1.85;;;;;;;;;;6093369;23;20088;-86
2023/12/12 13:09:17;;;;;;;4.95;1.83;;;;;;;;;;6079370;23;20100;-86
2023/12/12 13:11:43;;;;;;;6.25;2.08;;;;;;;;;;6113781;23;20045;-86
2023/12/12 13:14:09;;;;;;;6.45;1.60;;;;;;;;;;6065340;23;20029;-86
2023/12/12 13:16:34;;;;;;;8.02;1.80;;;;;;;;;;6052919;23;20017;-86
2023/12/12 13:19:11;;;;;;;6.40;1.50;;;;;;;;;;6070542;23;20076;-86
2023/12/12 13:21:49;;;;;;;4.72;1.40;;;;;;;;;;6080758;23;20020;-86
2023/12/12 13:24:14;;;;;;;7.63;1.90;;;;;;;;;;6091136;23;20025;-86
2023/12/12 13:26:40;;;;;;;5.38;1.75;;;;;;;;;;6064472;23;20512;-86
2023/12/12 13:29:16;;;;;;;4.93;1.95;;;;;;;;;;6064535;23;20041;-86
2023/12/12 13:31:41;;;;;;;5.53;1.65;;;;;;;;;;6067206;23;20020;-86
2023/12/12 13:34:06;;;;;;;7.68;1.80;;;;;;;;;;6081206;23;20469;-86
2023/12/12 13:36:32;;;;;;;5.68;1.95;;;;;;;;;;6140455;23;20085;-86
2023/12/12 13:38:58;;;;;;;7.13;2.05;;;;;;;;;;6105960;23;20049;-86
2023/12/12 13:41:26;;;;;;;4.13;1.58;;;;;;;;;;6116844;23;20353;-87
2023/12/12 13:43:56;;;;;;;4.07;1.63;;;;;;;;;;6092754;23;20400;-86
2023/12/12 13:46:31;;;;;;;6.57;1.88;;;;;;;;;;6087386;23;20167;-85
2023/12/12 13:48:57;;;;;;;8.63;2.10;;;;;;;;;;6081005;23;20010;-86
2023/12/12 13:51:22;;;;;;;6.15;1.85;;;;;;;;;;6079163;23;20108;-86
2023/12/12 13:53:50;;;;;;;5.50;1.88;;;;;;;;;;6093386;23;20504;-86
2023/12/12 13:56:21;;;;;;;6.28;1.95;;;;;;;;;;6070556;23;20046;-86
2023/12/12 13:58:49;;;;;;;4.13;1.63;;;;;;;;;;6092343;23;20013;-87
2023/12/12 14:01:17;;;;;;;5.07;1.90;;;;;;;;;;6079071;23;20017;-87
2023/12/12 14:03:43;;;;;;;7.50;2.00;;;;;;;;;;6117424;23;20619;-87
2023/12/12 14:06:08;;;;;;;7.28;2.15;;;;;;;;;;6081650;23;20025;-87
2023/12/12 14:08:34;;;;;;;6.28;2.20;;;;;;;;;;6108592;23;20056;-86
2023/12/12 14:11:00;;;;;;;8.07;2.10;;;;;;;;;;6080828;23;20025;-86
2023/12/12 14:13:27;;;;;;;4.93;2.03;;;;;;;;;;6118523;23;20026;-86
2023/12/12 14:16:13;;;;;;;7.63;2.10;;;;;;;;;;6088218;23;20037;-89
2023/12/12 14:18:40;;;;;;;6.97;2.10;;;;;;;;;;6090574;23;20029;-88
2023/12/12 14:21:06;;;;;;;8.90;2.60;;;;;;;;;;6119014;23;20010;-89
2023/12/12 14:23:33;;;;;;;7.85;2.65;;;;;;;;;;6095789;23;20320;-89
2023/12/12 14:25:58;;;;;;;10.68;2.60;;;;;;;;;;6093518;23;20017;-88
2023/12/12 14:28:23;;;;;;;6.75;2.50;;;;;;;;;;6131752;23;20091;-88
2023/12/12 14:30:52;;;;;;;7.85;2.72;;;;;;;;;;6070317;23;20080;-87
2023/12/12 14:33:18;;;;;;;11.00;3.03;;;;;;;;;;6069827;23;20416;-89
2023/12/12 14:35:49;;;;;;;8.38;2.40;;;;;;;;;;6066532;23;20090;-88
2023/12/12 14:38:16;;;;;;;10.25;2.88;;;;;;;;;;6066416;23;20088;-89
2023/12/12 14:40:43;;;;;;;12.27;3.33;;;;;;;;;;6064912;23;20022;-90
2023/12/12 14:43:09;;;;;;;9.68;3.13;;;;;;;;;;6058332;23;20108;-89
2023/12/12 14:45:34;;;;;;;10.38;3.60;;;;;;;;;;6045871;23;20019;-89
2023/12/12 14:48:00;;;;;;;6.72;3.17;;;;;;;;;;6072295;23;20014;-89
2023/12/12 14:50:26;;;;;;;8.95;2.97;;;;;;;;;;6081171;23;20019;-89
2023/12/12 14:52:59;;;;;;;11.20;3.50;;;;;;;;;;6064663;23;20014;-86
2023/12/12 14:55:34;;;;;;;14.52;5.35;;;;;;;;;;6042238;23;20042;-84
2023/12/12 14:58:00;;;;;;;9.02;3.40;;;;;;;;;;6087298;23;20024;-85
2023/12/12 15:00:25;;;;;;;7.00;2.90;;;;;;;;;;6056742;23;20009;-87
2023/12/12 15:02:51;;;;;;;11.65;3.45;;;;;;;;;;6030473;23;20017;-85